createdAt,value
2023-01-10T00:01:43.568Z,100471.19
2023-01-10T00:04:21.419Z,100480.63
2023-01-10T00:06:49.234Z,100476.25
2023-01-10T00:09:16.342Z,100477.97
2023-01-10T00:12:01.451Z,100482.28
2023-01-10T00:14:29.415Z,100476.25
2023-01-10T00:17:02.732Z,100478.88
2023-01-10T00:19:45.634Z,100480.75
2023-01-10T00:22:12.252Z,100482.47
2023-01-10T00:24:43.065Z,100488.56
2023-01-10T00:27:31.245Z,100479.06
2023-01-10T00:30:19.357Z,100485.22
2023-01-10T00:32:49.231Z,100480.03
2023-01-10T00:35:16.359Z,100483.56
2023-01-10T00:37:46.080Z,100488.81
2023-01-10T00:40:20.124Z,100482.81
2023-01-10T00:43:14.641Z,100497.53
2023-01-10T00:45:41.286Z,100500.09
2023-01-10T00:48:08.302Z,100502.66
2023-01-10T00:50:39.961Z,100509.53
2023-01-10T00:53:06.783Z,100522.25
2023-01-10T00:55:34.764Z,100518.78
2023-01-10T00:58:01.488Z,100521.34
2023-01-10T01:00:28.729Z,100525.56
2023-01-10T01:02:59.402Z,100535.97
2023-01-10T01:05:26.089Z,100540.31
2023-01-10T01:07:52.928Z,100552.44
2023-01-10T01:10:34.970Z,100553.97
2023-01-10T01:13:29.144Z,100568.72
2023-01-10T01:15:59.489Z,100585.19
2023-01-10T01:18:27.502Z,100587.75
2023-01-10T01:20:56.934Z,100588.72
2023-01-10T01:23:28.243Z,100596.44
2023-01-10T01:25:56.232Z,100592.00
2023-01-10T01:28:31.799Z,100602.34
2023-01-10T01:31:01.598Z,100597.13
2023-01-10T01:33:37.607Z,100605.81
2023-01-10T01:36:12.719Z,100620.63
2023-01-10T01:38:40.972Z,100620.63
2023-01-10T01:41:32.503Z,100632.78
2023-01-10T01:44:20.901Z,100637.03
2023-01-10T01:46:56.585Z,100631.91
2023-01-10T01:49:48.217Z,100637.16
2023-01-10T01:52:24.919Z,100637.31
2023-01-10T01:55:00.751Z,100653.00
2023-01-10T01:57:32.057Z,100660.78
2023-01-10T02:00:02.299Z,100661.69
2023-01-10T02:02:46.036Z,100662.53
2023-01-10T02:05:24.911Z,100666.13
2023-01-10T02:08:10.978Z,100667.00
2023-01-10T02:11:03.778Z,100680.13
2023-01-10T02:13:45.455Z,100673.28
2023-01-10T02:16:12.269Z,100674.25
2023-01-10T02:18:42.608Z,100679.44
2023-01-10T02:21:22.700Z,100681.88
2023-01-10T02:24:07.793Z,100688.00
2023-01-10T02:27:09.296Z,100688.19
2023-01-10T02:30:08.496Z,100688.31
2023-01-10T02:33:18.433Z,100696.13
2023-01-10T02:36:28.783Z,100697.06
2023-01-10T02:39:21.918Z,100704.84
2023-01-10T02:41:58.041Z,100705.63
2023-01-10T02:44:49.097Z,100704.66
2023-01-10T02:47:28.989Z,100699.34
2023-01-10T02:49:58.881Z,100704.56
2023-01-10T02:52:31.502Z,100711.53
2023-01-10T02:55:08.476Z,100719.19
2023-01-10T02:57:38.147Z,100722.63
2023-01-10T03:00:13.552Z,100734.72
2023-01-10T03:03:06.218Z,100732.09
2023-01-10T03:06:02.725Z,100742.50
2023-01-10T03:09:02.979Z,100751.88
2023-01-10T03:11:40.975Z,100755.34
2023-01-10T03:14:32.496Z,100762.34
2023-01-10T03:17:07.292Z,100754.53
2023-01-10T03:19:42.197Z,100769.25
2023-01-10T03:22:11.542Z,100769.28
2023-01-10T03:24:56.202Z,100770.13
2023-01-10T03:27:58.392Z,100778.78
2023-01-10T03:30:42.001Z,100776.97
2023-01-10T03:33:11.250Z,100786.44
2023-01-10T03:36:10.407Z,100787.38
2023-01-10T03:39:16.479Z,100790.03
2023-01-10T03:41:54.356Z,100793.34
2023-01-10T03:44:48.328Z,100804.66
2023-01-10T03:47:50.396Z,100805.50
2023-01-10T03:50:35.415Z,100805.63
2023-01-10T03:53:02.089Z,100816.91
2023-01-10T03:55:35.655Z,100829.97
2023-01-10T03:58:05.328Z,100830.06
2023-01-10T04:00:42.753Z,100835.28
2023-01-10T04:03:09.954Z,100854.34
2023-01-10T04:05:44.071Z,100855.13
2023-01-10T04:08:17.277Z,100860.25
2023-01-10T04:10:43.864Z,100866.31
2023-01-10T04:13:16.933Z,100869.81
2023-01-10T04:15:50.816Z,100876.78
2023-01-10T04:18:20.480Z,100888.06
2023-01-10T04:20:52.216Z,100885.47
2023-01-10T04:23:19.255Z,100892.50
2023-01-10T04:25:48.997Z,100901.16
2023-01-10T04:28:19.225Z,100902.84
2023-01-10T04:30:45.837Z,100908.84
2023-01-10T04:33:15.634Z,100914.03
2023-01-10T04:35:48.319Z,100920.06
2023-01-10T04:38:15.942Z,100925.31
2023-01-10T04:40:43.244Z,100933.94
2023-01-10T04:43:16.280Z,100928.75
2023-01-10T04:45:49.416Z,100939.13
2023-01-10T04:48:26.675Z,100951.31
2023-01-10T04:50:54.730Z,100956.53
2023-01-10T04:53:22.202Z,100952.19
2023-01-10T04:55:48.942Z,100964.38
2023-01-10T04:58:18.580Z,100962.63
2023-01-10T05:00:46.256Z,100969.59
2023-01-10T05:03:14.153Z,100979.19
2023-01-10T05:05:46.886Z,100980.94
2023-01-10T05:08:29.683Z,100985.25
2023-01-10T05:10:56.298Z,101000.00
2023-01-10T05:13:41.776Z,101007.00
2023-01-10T05:16:08.727Z,101006.16
2023-01-10T05:18:35.922Z,101011.31
2023-01-10T05:21:05.294Z,101019.97
2023-01-10T05:23:53.764Z,101018.25
2023-01-10T05:26:23.441Z,101026.91
2023-01-10T05:28:56.865Z,101022.50
2023-01-10T05:31:23.483Z,101034.66
2023-01-10T05:33:54.765Z,101045.94
2023-01-10T05:36:24.379Z,101051.91
2023-01-10T05:38:50.983Z,101042.38
2023-01-10T05:41:17.621Z,101054.53
2023-01-10T05:43:50.065Z,101065.81
2023-01-10T05:46:16.780Z,101064.13
2023-01-10T05:48:43.572Z,101062.34
2023-01-10T05:51:16.993Z,101068.41
2023-01-10T05:53:46.251Z,101073.59
2023-01-10T05:56:13.070Z,101075.31
2023-01-10T05:58:40.066Z,101072.72
2023-01-10T06:01:06.878Z,101073.59
2023-01-10T06:03:33.527Z,101081.38
2023-01-10T06:06:04.062Z,101085.72
2023-01-10T06:08:31.315Z,101090.03
2023-01-10T06:10:58.060Z,101099.59
2023-01-10T06:13:27.489Z,101096.97
2023-01-10T06:15:54.149Z,101112.50
2023-01-10T06:18:20.926Z,101114.22
2023-01-10T06:20:47.639Z,101127.31
2023-01-10T06:23:14.335Z,101118.66
2023-01-10T06:25:41.861Z,101143.72
2023-01-10T06:28:13.133Z,101148.06
2023-01-10T06:30:48.831Z,101158.47
2023-01-10T06:33:15.761Z,101162.81
2023-01-10T06:35:42.385Z,101167.13
2023-01-10T06:38:16.920Z,101174.06
2023-01-10T06:40:44.191Z,101172.34
2023-01-10T06:43:10.811Z,101181.88
2023-01-10T06:45:37.522Z,101175.84
2023-01-10T06:48:04.727Z,101178.47
2023-01-10T06:50:31.965Z,101185.41
2023-01-10T06:53:04.442Z,101194.09
2023-01-10T06:55:31.637Z,101195.84
2023-01-10T06:58:00.983Z,101202.78
2023-01-10T07:00:30.819Z,101210.59
2023-01-10T07:03:01.648Z,101211.44
2023-01-10T07:05:39.538Z,101220.97
2023-01-10T07:08:06.211Z,101224.44
2023-01-10T07:10:32.990Z,101220.97
2023-01-10T07:12:59.763Z,101220.97
2023-01-10T07:15:28.338Z,101226.13
2023-01-10T07:18:00.716Z,101228.72
2023-01-10T07:20:28.162Z,101241.72
2023-01-10T07:23:01.417Z,101246.94
2023-01-10T07:25:29.503Z,101248.72
2023-01-10T07:27:56.170Z,101266.06
2023-01-10T07:30:25.205Z,101271.25
2023-01-10T07:33:03.982Z,101266.03
2023-01-10T07:35:30.685Z,101270.44
2023-01-10T07:38:00.686Z,101283.47
2023-01-10T07:40:27.857Z,101286.09
2023-01-10T07:43:01.775Z,101290.44
2023-01-10T07:45:30.296Z,101292.16
2023-01-10T07:48:02.136Z,101298.28
2023-01-10T07:50:30.809Z,101301.75
2023-01-10T07:52:59.604Z,101300.03
2023-01-10T07:55:27.188Z,101310.38
2023-01-10T07:57:54.117Z,101315.63
2023-01-10T08:00:20.976Z,101321.66
2023-01-10T08:02:51.233Z,101319.91
2023-01-10T08:05:17.941Z,101320.72
2023-01-10T08:07:44.747Z,101325.03
2023-01-10T08:10:11.604Z,101329.34
2023-01-10T08:12:38.928Z,101331.91
2023-01-10T08:15:09.085Z,101340.56
2023-01-10T08:17:36.377Z,101348.38
2023-01-10T08:20:04.048Z,101357.91
2023-01-10T08:22:30.564Z,101360.44
2023-01-10T08:24:57.256Z,101363.91
2023-01-10T08:27:23.928Z,101366.50
2023-01-10T08:29:50.693Z,101375.19
2023-01-10T08:32:17.545Z,101369.06
2023-01-10T08:34:46.790Z,101374.25
2023-01-10T08:37:16.820Z,101374.25
2023-01-10T08:39:48.497Z,101375.97
2023-01-10T08:42:20.872Z,101385.47
2023-01-10T08:44:47.681Z,101382.84
2023-01-10T08:47:18.083Z,101387.19
2023-01-10T08:49:46.134Z,101386.38
2023-01-10T08:52:13.315Z,101382.88
2023-01-10T08:54:39.929Z,101391.56
2023-01-10T08:57:06.610Z,101396.75
2023-01-10T08:59:33.216Z,101395.03
2023-01-10T09:02:04.958Z,101397.59
2023-01-10T09:04:33.062Z,101393.22
2023-01-10T09:06:59.891Z,101405.34
2023-01-10T09:09:29.580Z,101404.41
2023-01-10T09:12:00.456Z,101416.53
2023-01-10T09:14:29.666Z,101414.78
2023-01-10T09:16:58.688Z,101414.78
2023-01-10T09:19:25.279Z,101421.69
2023-01-10T09:21:51.865Z,101432.19
2023-01-10T09:24:18.507Z,101441.75
2023-01-10T09:26:47.524Z,101447.81
2023-01-10T09:29:17.481Z,101440.75
2023-01-10T09:31:46.556Z,101441.59
2023-01-10T09:34:13.456Z,101438.94
2023-01-10T09:36:45.624Z,101438.03
2023-01-10T09:39:12.287Z,101444.00
2023-01-10T09:42:18.080Z,101450.84
2023-01-10T09:44:54.050Z,101448.94
2023-01-10T09:47:43.822Z,101449.00
2023-01-10T09:50:22.707Z,101457.59
2023-01-10T09:53:20.671Z,101462.94
2023-01-10T09:55:59.800Z,101459.47
2023-01-10T09:58:31.410Z,101459.47
2023-01-10T10:01:06.257Z,101461.06
2023-01-10T10:04:06.921Z,101465.31
2023-01-10T10:06:34.776Z,101465.50
2023-01-10T10:09:03.620Z,101468.19
2023-01-10T10:11:50.333Z,101472.69
2023-01-10T10:14:42.768Z,101464.13
2023-01-10T10:17:41.343Z,101469.41
2023-01-10T10:20:38.493Z,101474.47
2023-01-10T10:23:33.314Z,101488.25
2023-01-10T10:26:17.816Z,101483.97
2023-01-10T10:29:02.857Z,101490.00
2023-01-10T10:31:29.888Z,101489.09
2023-01-10T10:34:38.827Z,101476.09
2023-01-10T10:37:20.618Z,101479.47
2023-01-10T10:39:56.398Z,101474.16
2023-01-10T10:42:37.288Z,101485.44
2023-01-10T10:45:17.449Z,101493.25
2023-01-10T10:47:50.588Z,101498.47
2023-01-10T10:50:32.195Z,101503.69
2023-01-10T10:53:01.993Z,101493.25
2023-01-10T10:55:35.329Z,101498.47
2023-01-10T10:58:04.435Z,101501.16
2023-01-10T11:00:33.794Z,101516.03
2023-01-10T11:03:21.834Z,101517.75
2023-01-10T11:05:48.787Z,101510.81
2023-01-10T11:08:18.512Z,101523.00
2023-01-10T11:10:49.832Z,101535.19
2023-01-10T11:13:34.683Z,101549.06
2023-01-10T11:16:04.603Z,101541.16
2023-01-10T11:18:32.793Z,101535.06
2023-01-10T11:21:01.072Z,101534.22
2023-01-10T11:23:40.094Z,101535.84
2023-01-10T11:26:28.883Z,101520.13
2023-01-10T11:29:18.879Z,101513.97
2023-01-10T11:31:56.354Z,101509.50
2023-01-10T11:34:35.954Z,101518.06
2023-01-10T11:37:05.468Z,101515.34
2023-01-10T11:39:33.115Z,101516.06
2023-01-10T11:42:22.287Z,101528.69
2023-01-10T11:44:48.877Z,101523.56
2023-01-10T11:47:20.976Z,101514.63
2023-01-10T11:49:51.309Z,101513.84
2023-01-10T11:52:34.813Z,101518.38
2023-01-10T11:55:02.886Z,101520.44
2023-01-10T11:57:33.006Z,101528.81
2023-01-10T12:00:03.820Z,101525.97
2023-01-10T12:02:44.531Z,101535.09
2023-01-10T12:05:19.912Z,101530.78
2023-01-10T12:08:10.699Z,101537.00
2023-01-10T12:10:37.343Z,101545.19
2023-01-10T12:13:17.865Z,101537.41
2023-01-10T12:15:47.047Z,101533.16
2023-01-10T12:18:17.613Z,101520.19
2023-01-10T12:20:53.900Z,101528.13
2023-01-10T12:23:26.023Z,101534.38
2023-01-10T12:26:07.162Z,101539.69
2023-01-10T12:28:41.161Z,101533.63
2023-01-10T12:31:14.229Z,101530.09
2023-01-10T12:33:47.584Z,101534.47
2023-01-10T12:36:38.478Z,101541.41
2023-01-10T12:39:30.499Z,101536.69
2023-01-10T12:42:35.685Z,101544.97
2023-01-10T12:45:20.297Z,101550.38
2023-01-10T12:47:53.521Z,101552.13
2023-01-10T12:50:27.665Z,101555.63
2023-01-10T12:53:29.359Z,101568.75
2023-01-10T12:55:58.602Z,101562.75
2023-01-10T12:58:47.259Z,101571.47
2023-01-10T13:01:20.168Z,101570.69
2023-01-10T13:04:06.072Z,101571.47
2023-01-10T13:06:42.647Z,101577.78
2023-01-10T13:09:17.215Z,101583.09
2023-01-10T13:12:08.521Z,101584.03
2023-01-10T13:15:02.183Z,101587.53
2023-01-10T13:18:10.019Z,101590.16
2023-01-10T13:20:41.036Z,101585.81
2023-01-10T13:23:34.471Z,101590.19
2023-01-10T13:26:15.090Z,101592.84
2023-01-10T13:28:57.757Z,101602.41
2023-01-10T13:31:32.875Z,101605.03
2023-01-10T13:34:03.315Z,101598.97
2023-01-10T13:36:42.208Z,101601.56
2023-01-10T13:39:27.867Z,101602.47
2023-01-10T13:42:19.142Z,101598.09
2023-01-10T13:45:03.684Z,101605.06
2023-01-10T13:47:42.059Z,101604.19
2023-01-10T13:50:26.575Z,101603.28
2023-01-10T13:53:25.691Z,101608.53
2023-01-10T13:55:58.677Z,101621.59
2023-01-10T13:58:43.954Z,101617.28
2023-01-10T14:01:54.532Z,101614.72
2023-01-10T14:04:25.814Z,101623.44
2023-01-10T14:06:59.057Z,101630.41
2023-01-10T14:09:28.859Z,101632.16
2023-01-10T14:11:59.917Z,101617.38
2023-01-10T14:14:37.910Z,101627.88
2023-01-10T14:17:15.805Z,101626.09
2023-01-10T14:19:48.557Z,101615.69
2023-01-10T14:22:31.384Z,101622.69
2023-01-10T14:25:00.613Z,101629.63
2023-01-10T14:27:45.158Z,101615.72
2023-01-10T14:30:37.889Z,101611.47
2023-01-10T14:33:16.421Z,101614.16
2023-01-10T14:35:48.163Z,101624.66
2023-01-10T14:38:26.892Z,101620.31
2023-01-10T14:41:00.543Z,101622.06
2023-01-10T14:43:32.013Z,101627.34
2023-01-10T14:46:19.042Z,101623.03
2023-01-10T14:48:51.911Z,101609.19
2023-01-10T14:51:24.730Z,101614.44
2023-01-10T14:54:04.548Z,101610.97
2023-01-10T14:56:39.012Z,101609.25
2023-01-10T14:59:36.207Z,101614.47
2023-01-10T15:02:26.464Z,101609.28
2023-01-10T15:04:57.035Z,101611.09
2023-01-10T15:07:25.541Z,101611.09
2023-01-10T15:09:56.545Z,101626.75
2023-01-10T15:12:29.775Z,101630.22
2023-01-10T15:15:06.858Z,101634.56
2023-01-10T15:17:35.710Z,101638.00
2023-01-10T15:20:07.381Z,101633.69
2023-01-10T15:22:38.852Z,101638.91
2023-01-10T15:25:20.671Z,101628.50
2023-01-10T15:27:52.157Z,101640.66
2023-01-10T15:30:22.885Z,101649.34
2023-01-10T15:32:52.158Z,101653.66
2023-01-10T15:35:27.458Z,101651.06
2023-01-10T15:38:10.631Z,101647.59
2023-01-10T15:40:41.603Z,101646.72
2023-01-10T15:43:39.498Z,101657.13
2023-01-10T15:46:17.999Z,101649.31
2023-01-10T15:49:05.287Z,101658.03
2023-01-10T15:51:38.881Z,101654.53
2023-01-10T15:54:21.746Z,101652.81
2023-01-10T15:56:51.492Z,101653.69
2023-01-10T15:59:32.994Z,101646.75
2023-01-10T16:02:17.905Z,101648.47
2023-01-10T16:04:49.452Z,101655.41
2023-01-10T16:07:30.182Z,101651.06
2023-01-10T16:10:02.714Z,101650.22
2023-01-10T16:12:56.420Z,101655.41
2023-01-10T16:15:27.001Z,101657.13
2023-01-10T16:17:54.098Z,101658.91
2023-01-10T16:20:35.186Z,101653.66
2023-01-10T16:23:03.732Z,101652.81
2023-01-10T16:25:44.683Z,101638.91
2023-01-10T16:28:16.675Z,101645.88
2023-01-10T16:30:51.878Z,101642.41
2023-01-10T16:33:22.845Z,101638.94
2023-01-10T16:35:52.495Z,101646.75
2023-01-10T16:38:23.299Z,101643.25
2023-01-10T16:41:22.283Z,101638.91
2023-01-10T16:43:49.705Z,101646.72
2023-01-10T16:46:19.483Z,101647.59
2023-01-10T16:48:47.754Z,101638.06
2023-01-10T16:51:18.554Z,101641.50
2023-01-10T16:53:45.841Z,101640.66
2023-01-10T16:56:15.127Z,101644.13
2023-01-10T16:58:41.850Z,101647.63
2023-01-10T17:01:14.098Z,101651.06
2023-01-10T17:03:42.502Z,101642.41
2023-01-10T17:06:12.186Z,101657.13
2023-01-10T17:08:38.841Z,101654.53
2023-01-10T17:11:08.132Z,101657.16
2023-01-10T17:13:42.173Z,101643.28
2023-01-10T17:16:08.831Z,101640.69
2023-01-10T17:18:39.476Z,101634.59
2023-01-10T17:21:14.556Z,101632.88
2023-01-10T17:23:44.896Z,101634.59
2023-01-10T17:26:16.299Z,101636.34
2023-01-10T17:28:49.579Z,101642.41
2023-01-10T17:31:17.833Z,101645.00
2023-01-10T17:33:44.731Z,101647.59
2023-01-10T17:36:12.059Z,101645.88
2023-01-10T17:38:41.744Z,101648.50
2023-01-10T17:41:10.166Z,101645.88
2023-01-10T17:43:41.141Z,101646.75
2023-01-10T17:46:07.918Z,101654.53
2023-01-10T17:48:34.930Z,101649.34
2023-01-10T17:51:07.584Z,101648.47
2023-01-10T17:53:40.365Z,101632.88
2023-01-10T17:56:07.871Z,101641.53
2023-01-10T17:58:35.008Z,101645.00
2023-01-10T18:01:01.723Z,101643.25
2023-01-10T18:03:28.957Z,101631.13
2023-01-10T18:05:57.614Z,101645.88
2023-01-10T18:08:27.179Z,101644.13
2023-01-10T18:11:00.723Z,101644.13
2023-01-10T18:13:31.554Z,101649.31
2023-01-10T18:16:00.254Z,101641.50
2023-01-10T18:18:28.097Z,101644.91
2023-01-10T18:20:58.317Z,101641.47
2023-01-10T18:23:26.955Z,101637.16
2023-01-10T18:26:00.125Z,101638.84
2023-01-10T18:28:40.815Z,101646.66
2023-01-10T18:31:16.897Z,101641.44
2023-01-10T18:33:47.402Z,101637.13
2023-01-10T18:36:23.025Z,101637.09
2023-01-10T18:38:56.224Z,101645.72
2023-01-10T18:41:22.919Z,101630.13
2023-01-10T18:43:51.920Z,101630.97
2023-01-10T18:46:23.647Z,101631.84
2023-01-10T18:49:01.303Z,101631.81
2023-01-10T18:51:27.991Z,101628.38
2023-01-10T18:53:54.748Z,101626.63
2023-01-10T18:56:23.230Z,101616.22
2023-01-10T18:58:55.497Z,101626.59
2023-01-10T19:01:23.104Z,101624.91
2023-01-10T19:03:50.604Z,101624.00
2023-01-10T19:06:19.873Z,101619.69
2023-01-10T19:08:49.086Z,101617.97
2023-01-10T19:11:18.702Z,101608.41
2023-01-10T19:13:50.404Z,101612.72
2023-01-10T19:16:22.640Z,101621.38
2023-01-10T19:18:55.657Z,101617.88
2023-01-10T19:21:23.414Z,101612.69
2023-01-10T19:23:51.759Z,101612.66
2023-01-10T19:26:18.529Z,101610.88
2023-01-10T19:28:46.473Z,101603.97
2023-01-10T19:31:18.429Z,101602.22
2023-01-10T19:33:48.162Z,101597.88
2023-01-10T19:36:15.593Z,101593.53
2023-01-10T19:38:44.884Z,101589.16
2023-01-10T19:41:14.498Z,101590.03
2023-01-10T19:43:41.239Z,101590.84
2023-01-10T19:46:09.611Z,101586.50
2023-01-10T19:48:38.289Z,101578.69
2023-01-10T19:51:15.287Z,101574.38
2023-01-10T19:53:45.462Z,101578.66
2023-01-10T19:56:19.701Z,101580.38
2023-01-10T19:58:46.612Z,101575.16
2023-01-10T20:01:16.579Z,101575.94
2023-01-10T20:03:46.693Z,101572.50
2023-01-10T20:06:17.428Z,101572.50
2023-01-10T20:08:48.423Z,101574.22
2023-01-10T20:11:16.555Z,101563.88
2023-01-10T20:13:45.195Z,101566.41
2023-01-10T20:16:14.018Z,101565.53
2023-01-10T20:18:41.257Z,101561.19
2023-01-10T20:21:13.226Z,101559.44
2023-01-10T20:23:47.046Z,101559.34
2023-01-10T20:26:22.784Z,101554.13
2023-01-10T20:28:50.700Z,101560.13
2023-01-10T20:31:24.160Z,101555.78
2023-01-10T20:33:51.371Z,101552.25
2023-01-10T20:36:22.282Z,101552.22
2023-01-10T20:38:49.184Z,101551.28
2023-01-10T20:41:22.202Z,101555.59
2023-01-10T20:43:53.361Z,101551.22
2023-01-10T20:46:32.113Z,101549.47
2023-01-10T20:49:02.224Z,101540.84
2023-01-10T20:51:32.414Z,101547.72
2023-01-10T20:53:59.897Z,101540.78
2023-01-10T20:56:29.715Z,101544.22
2023-01-10T20:58:56.580Z,101533.88
2023-01-10T21:01:34.296Z,101538.19
2023-01-10T21:04:02.643Z,101536.59
2023-01-10T21:06:32.613Z,101533.06
2023-01-10T21:09:00.556Z,101543.44
2023-01-10T21:11:27.372Z,101540.13
2023-01-10T21:13:54.232Z,101525.41
2023-01-10T21:16:22.601Z,101523.72
2023-01-10T21:18:50.693Z,101528.97
2023-01-10T21:21:22.856Z,101533.31
2023-01-10T21:23:49.693Z,101531.59
2023-01-10T21:26:16.656Z,101523.84
2023-01-10T21:28:48.430Z,101521.25
2023-01-10T21:31:17.759Z,101521.22
2023-01-10T21:33:44.523Z,101514.31
2023-01-10T21:36:13.498Z,101517.78
2023-01-10T21:38:41.109Z,101520.41
2023-01-10T21:41:11.884Z,101510.09
2023-01-10T21:43:38.911Z,101504.84
2023-01-10T21:46:05.847Z,101498.78
2023-01-10T21:48:32.873Z,101496.22
2023-01-10T21:50:59.544Z,101492.78
2023-01-10T21:53:26.332Z,101490.19
2023-01-10T21:55:52.967Z,101484.13
2023-01-10T21:58:19.751Z,101485.84
2023-01-10T22:00:46.431Z,101487.56
2023-01-10T22:03:13.133Z,101484.09
2023-01-10T22:05:40.533Z,101475.47
2023-01-10T22:08:07.104Z,101477.13
2023-01-10T22:10:33.802Z,101473.69
2023-01-10T22:13:00.439Z,101475.47
2023-01-10T22:15:27.234Z,101475.47
2023-01-10T22:17:53.870Z,101459.84
2023-01-10T22:20:26.558Z,101465.09
2023-01-10T22:22:53.189Z,101464.13
2023-01-10T22:25:19.866Z,101465.00
2023-01-10T22:27:47.081Z,101459.84
2023-01-10T22:30:13.816Z,101467.63
2023-01-10T22:32:40.509Z,101455.53
2023-01-10T22:35:14.931Z,101459.03
2023-01-10T22:37:41.877Z,101453.00
2023-01-10T22:40:12.301Z,101448.66
2023-01-10T22:42:38.911Z,101436.63
2023-01-10T22:45:06.208Z,101432.31
2023-01-10T22:47:32.835Z,101438.38
2023-01-10T22:49:59.491Z,101440.13
2023-01-10T22:52:29.000Z,101429.72
2023-01-10T22:54:56.046Z,101420.22
2023-01-10T22:57:23.580Z,101420.19
2023-01-10T22:59:50.194Z,101421.13
2023-01-10T23:02:16.931Z,101414.22
2023-01-10T23:04:49.371Z,101415.97
2023-01-10T23:07:16.001Z,101409.97
2023-01-10T23:09:42.648Z,101403.03
2023-01-10T23:12:09.755Z,101405.63
2023-01-10T23:14:36.683Z,101396.97
2023-01-10T23:17:03.310Z,101387.47
2023-01-10T23:19:29.926Z,101387.44
2023-01-10T23:21:56.558Z,101392.69
2023-01-10T23:24:23.194Z,101388.38
2023-01-10T23:26:50.709Z,101387.47
2023-01-10T23:29:18.158Z,101388.34
2023-01-10T23:31:49.688Z,101389.25
2023-01-10T23:34:19.278Z,101380.63
2023-01-10T23:36:45.906Z,101384.06
2023-01-10T23:39:12.651Z,101374.56
2023-01-10T23:41:45.460Z,101363.34
2023-01-10T23:44:12.109Z,101356.41
2023-01-10T23:46:38.717Z,101357.28
2023-01-10T23:49:05.471Z,101352.06
2023-01-10T23:51:32.599Z,101352.06
2023-01-10T23:53:59.225Z,101339.09
2023-01-10T23:56:25.906Z,101346.00
2023-01-10T23:58:52.803Z,101347.75
